sensor_id;sensor_type;location;lat;lon;timestamp;P1;durP1;ratioP1;P2;durP2;ratioP2
61635;SDS011;59438;45.014;39.006;2022-08-21T00:00:18;20.02;;;5.03;;
61635;SDS011;59438;45.014;39.006;2022-08-21T00:02:47;25.38;;;5.18;;
61635;SDS011;59438;45.014;39.006;2022-08-21T00:05:16;19.20;;;5.67;;
61635;SDS011;59438;45.014;39.006;2022-08-21T00:07:44;31.50;;;5.47;;
61635;SDS011;59438;45.014;39.006;2022-08-21T00:10:10;23.50;;;5.75;;
61635;SDS011;59438;45.014;39.006;2022-08-21T00:12:38;26.77;;;5.75;;
61635;SDS011;59438;45.014;39.006;2022-08-21T00:15:06;19.30;;;4.95;;
61635;SDS011;59438;45.014;39.006;2022-08-21T00:17:35;30.88;;;5.57;;
61635;SDS011;59438;45.014;39.006;2022-08-21T00:20:02;19.08;;;5.32;;
61635;SDS011;59438;45.014;39.006;2022-08-21T00:22:30;22.23;;;5.05;;
61635;SDS011;59438;45.014;39.006;2022-08-21T00:24:57;34.55;;;6.15;;
61635;SDS011;59438;45.014;39.006;2022-08-21T00:27:24;24.17;;;5.63;;
61635;SDS011;59438;45.014;39.006;2022-08-21T00:29:50;24.63;;;5.57;;
61635;SDS011;59438;45.014;39.006;2022-08-21T00:32:19;21.98;;;5.75;;
61635;SDS011;59438;45.014;39.006;2022-08-21T00:34:46;24.05;;;6.10;;
61635;SDS011;59438;45.014;39.006;2022-08-21T00:37:12;22.98;;;5.35;;
61635;SDS011;59438;45.014;39.006;2022-08-21T00:39:39;20.25;;;5.53;;
61635;SDS011;59438;45.014;39.006;2022-08-21T00:42:07;22.80;;;5.35;;
61635;SDS011;59438;45.014;39.006;2022-08-21T00:44:33;28.65;;;6.10;;
61635;SDS011;59438;45.014;39.006;2022-08-21T00:47:00;29.83;;;5.72;;
61635;SDS011;59438;45.014;39.006;2022-08-21T00:49:27;21.02;;;5.28;;
61635;SDS011;59438;45.014;39.006;2022-08-21T00:51:54;36.42;;;6.38;;
61635;SDS011;59438;45.014;39.006;2022-08-21T00:54:24;35.25;;;6.35;;
61635;SDS011;59438;45.014;39.006;2022-08-21T00:56:51;28.13;;;5.97;;
61635;SDS011;59438;45.014;39.006;2022-08-21T00:59:23;25.30;;;5.97;;
61635;SDS011;59438;45.014;39.006;2022-08-21T01:01:52;27.02;;;6.18;;
61635;SDS011;59438;45.014;39.006;2022-08-21T01:04:19;41.97;;;6.72;;
61635;SDS011;59438;45.014;39.006;2022-08-21T01:06:46;34.30;;;5.63;;
61635;SDS011;59438;45.014;39.006;2022-08-21T01:09:12;29.85;;;6.60;;
61635;SDS011;59438;45.014;39.006;2022-08-21T01:11:39;34.08;;;6.38;;
61635;SDS011;59438;45.014;39.006;2022-08-21T01:14:06;53.05;;;6.95;;
61635;SDS011;59438;45.014;39.006;2022-08-21T01:16:34;36.47;;;6.50;;
61635;SDS011;59438;45.014;39.006;2022-08-21T01:19:01;48.25;;;6.60;;
61635;SDS011;59438;45.014;39.006;2022-08-21T01:21:29;43.30;;;5.63;;
61635;SDS011;59438;45.014;39.006;2022-08-21T01:23:56;41.97;;;6.40;;
61635;SDS011;59438;45.014;39.006;2022-08-21T01:26:23;56.30;;;6.78;;
61635;SDS011;59438;45.014;39.006;2022-08-21T01:28:52;40.40;;;6.00;;
61635;SDS011;59438;45.014;39.006;2022-08-21T01:31:26;51.05;;;6.50;;
61635;SDS011;59438;45.014;39.006;2022-08-21T01:33:55;52.45;;;6.30;;
61635;SDS011;59438;45.014;39.006;2022-08-21T01:36:22;39.95;;;6.18;;
61635;SDS011;59438;45.014;39.006;2022-08-21T01:38:50;53.95;;;6.30;;
61635;SDS011;59438;45.014;39.006;2022-08-21T01:41:17;56.83;;;7.35;;
61635;SDS011;59438;45.014;39.006;2022-08-21T01:43:43;54.35;;;5.88;;
61635;SDS011;59438;45.014;39.006;2022-08-21T01:46:10;62.28;;;6.40;;
61635;SDS011;59438;45.014;39.006;2022-08-21T01:48:37;52.70;;;6.15;;
61635;SDS011;59438;45.014;39.006;2022-08-21T01:51:04;62.67;;;7.28;;
61635;SDS011;59438;45.014;39.006;2022-08-21T01:53:31;52.42;;;6.63;;
61635;SDS011;59438;45.014;39.006;2022-08-21T01:55:59;53.38;;;6.22;;
61635;SDS011;59438;45.014;39.006;2022-08-21T01:58:26;52.10;;;6.40;;
61635;SDS011;59438;45.014;39.006;2022-08-21T02:00:52;48.40;;;6.35;;
61635;SDS011;59438;45.014;39.006;2022-08-21T02:03:19;52.38;;;8.18;;
61635;SDS011;59438;45.014;39.006;2022-08-21T02:05:45;53.65;;;6.95;;
61635;SDS011;59438;45.014;39.006;2022-08-21T02:08:11;59.83;;;6.80;;
61635;SDS011;59438;45.014;39.006;2022-08-21T02:10:38;48.67;;;6.60;;
61635;SDS011;59438;45.014;39.006;2022-08-21T02:13:06;60.20;;;7.22;;
61635;SDS011;59438;45.014;39.006;2022-08-21T02:15:32;57.80;;;6.95;;
61635;SDS011;59438;45.014;39.006;2022-08-21T02:17:59;62.83;;;6.78;;
61635;SDS011;59438;45.014;39.006;2022-08-21T02:20:28;66.65;;;6.90;;
61635;SDS011;59438;45.014;39.006;2022-08-21T02:22:55;60.00;;;6.70;;
61635;SDS011;59438;45.014;39.006;2022-08-21T02:25:22;71.75;;;7.22;;
61635;SDS011;59438;45.014;39.006;2022-08-21T02:27:50;73.82;;;8.02;;
61635;SDS011;59438;45.014;39.006;2022-08-21T02:30:19;66.80;;;7.32;;
61635;SDS011;59438;45.014;39.006;2022-08-21T02:32:48;59.65;;;7.35;;
61635;SDS011;59438;45.014;39.006;2022-08-21T02:35:14;62.03;;;7.38;;
61635;SDS011;59438;45.014;39.006;2022-08-21T02:37:45;57.50;;;6.93;;
61635;SDS011;59438;45.014;39.006;2022-08-21T02:40:14;65.55;;;7.38;;
61635;SDS011;59438;45.014;39.006;2022-08-21T02:42:41;59.88;;;6.32;;
61635;SDS011;59438;45.014;39.006;2022-08-21T02:45:08;60.22;;;6.60;;
61635;SDS011;59438;45.014;39.006;2022-08-21T02:47:36;66.13;;;7.75;;
61635;SDS011;59438;45.014;39.006;2022-08-21T02:50:03;75.90;;;7.22;;
61635;SDS011;59438;45.014;39.006;2022-08-21T02:52:30;81.75;;;8.50;;
61635;SDS011;59438;45.014;39.006;2022-08-21T02:54:56;70.00;;;8.52;;
61635;SDS011;59438;45.014;39.006;2022-08-21T02:57:22;97.15;;;9.95;;
61635;SDS011;59438;45.014;39.006;2022-08-21T02:59:49;85.38;;;8.10;;
61635;SDS011;59438;45.014;39.006;2022-08-21T03:02:15;73.53;;;8.15;;
61635;SDS011;59438;45.014;39.006;2022-08-21T03:04:43;69.10;;;8.45;;
61635;SDS011;59438;45.014;39.006;2022-08-21T03:07:09;85.85;;;9.07;;
61635;SDS011;59438;45.014;39.006;2022-08-21T03:09:36;68.93;;;8.25;;
61635;SDS011;59438;45.014;39.006;2022-08-21T03:12:02;77.20;;;8.27;;
61635;SDS011;59438;45.014;39.006;2022-08-21T03:14:28;80.00;;;8.57;;
61635;SDS011;59438;45.014;39.006;2022-08-21T03:16:55;100.43;;;8.40;;
61635;SDS011;59438;45.014;39.006;2022-08-21T03:19:21;86.13;;;9.52;;
61635;SDS011;59438;45.014;39.006;2022-08-21T03:21:49;84.65;;;8.32;;
61635;SDS011;59438;45.014;39.006;2022-08-21T03:24:15;89.38;;;8.90;;
61635;SDS011;59438;45.014;39.006;2022-08-21T03:26:42;82.75;;;8.38;;
61635;SDS011;59438;45.014;39.006;2022-08-21T03:29:08;91.25;;;8.93;;
61635;SDS011;59438;45.014;39.006;2022-08-21T03:31:34;82.80;;;8.35;;
61635;SDS011;59438;45.014;39.006;2022-08-21T03:34:01;105.68;;;8.70;;
61635;SDS011;59438;45.014;39.006;2022-08-21T03:36:27;83.82;;;9.15;;
61635;SDS011;59438;45.014;39.006;2022-08-21T03:38:55;81.25;;;7.95;;
61635;SDS011;59438;45.014;39.006;2022-08-21T03:41:21;95.03;;;8.95;;
61635;SDS011;59438;45.014;39.006;2022-08-21T03:43:48;76.75;;;8.82;;
61635;SDS011;59438;45.014;39.006;2022-08-21T03:46:14;71.22;;;7.65;;
61635;SDS011;59438;45.014;39.006;2022-08-21T03:48:40;84.15;;;9.52;;
61635;SDS011;59438;45.014;39.006;2022-08-21T03:51:07;90.90;;;10.00;;
61635;SDS011;59438;45.014;39.006;2022-08-21T03:53:33;74.53;;;8.30;;
61635;SDS011;59438;45.014;39.006;2022-08-21T03:56:02;82.63;;;8.38;;
61635;SDS011;59438;45.014;39.006;2022-08-21T03:58:29;83.68;;;8.65;;
61635;SDS011;59438;45.014;39.006;2022-08-21T04:00:56;94.97;;;9.35;;
61635;SDS011;59438;45.014;39.006;2022-08-21T04:03:25;90.05;;;9.30;;
61635;SDS011;59438;45.014;39.006;2022-08-21T04:05:54;74.22;;;7.65;;
61635;SDS011;59438;45.014;39.006;2022-08-21T04:08:21;87.13;;;8.77;;
61635;SDS011;59438;45.014;39.006;2022-08-21T04:10:48;68.57;;;7.85;;
61635;SDS011;59438;45.014;39.006;2022-08-21T04:13:18;70.25;;;7.90;;
61635;SDS011;59438;45.014;39.006;2022-08-21T04:15:44;80.78;;;8.00;;
61635;SDS011;59438;45.014;39.006;2022-08-21T04:18:11;77.88;;;8.32;;
61635;SDS011;59438;45.014;39.006;2022-08-21T04:20:37;79.22;;;8.30;;
61635;SDS011;59438;45.014;39.006;2022-08-21T04:23:04;77.57;;;9.05;;
61635;SDS011;59438;45.014;39.006;2022-08-21T04:25:31;60.25;;;7.47;;
61635;SDS011;59438;45.014;39.006;2022-08-21T04:27:57;70.15;;;7.30;;
61635;SDS011;59438;45.014;39.006;2022-08-21T04:30:25;76.85;;;7.93;;
61635;SDS011;59438;45.014;39.006;2022-08-21T04:32:52;78.57;;;8.77;;
61635;SDS011;59438;45.014;39.006;2022-08-21T04:35:19;72.80;;;7.68;;
61635;SDS011;59438;45.014;39.006;2022-08-21T04:37:47;71.65;;;7.93;;
61635;SDS011;59438;45.014;39.006;2022-08-21T04:40:14;58.50;;;6.70;;
61635;SDS011;59438;45.014;39.006;2022-08-21T04:42:43;78.50;;;6.68;;
61635;SDS011;59438;45.014;39.006;2022-08-21T04:45:16;72.30;;;7.13;;
61635;SDS011;59438;45.014;39.006;2022-08-21T04:47:45;40.30;;;5.65;;
61635;SDS011;59438;45.014;39.006;2022-08-21T04:50:11;73.88;;;6.85;;
61635;SDS011;59438;45.014;39.006;2022-08-21T04:52:37;63.75;;;6.95;;
61635;SDS011;59438;45.014;39.006;2022-08-21T04:55:04;73.63;;;7.15;;
61635;SDS011;59438;45.014;39.006;2022-08-21T04:57:31;67.60;;;7.45;;
61635;SDS011;59438;45.014;39.006;2022-08-21T04:59:57;70.30;;;7.60;;
61635;SDS011;59438;45.014;39.006;2022-08-21T05:02:24;58.75;;;6.80;;
61635;SDS011;59438;45.014;39.006;2022-08-21T05:04:52;58.17;;;6.38;;
61635;SDS011;59438;45.014;39.006;2022-08-21T05:07:20;59.22;;;6.30;;
61635;SDS011;59438;45.014;39.006;2022-08-21T05:09:50;76.85;;;7.28;;
61635;SDS011;59438;45.014;39.006;2022-08-21T05:12:17;66.80;;;7.40;;
61635;SDS011;59438;45.014;39.006;2022-08-21T05:14:44;69.85;;;6.30;;
61635;SDS011;59438;45.014;39.006;2022-08-21T05:17:10;55.22;;;6.72;;
61635;SDS011;59438;45.014;39.006;2022-08-21T05:19:37;47.22;;;6.05;;
61635;SDS011;59438;45.014;39.006;2022-08-21T05:22:04;57.38;;;6.32;;
61635;SDS011;59438;45.014;39.006;2022-08-21T05:24:31;60.20;;;6.68;;
61635;SDS011;59438;45.014;39.006;2022-08-21T05:26:58;53.25;;;5.85;;
61635;SDS011;59438;45.014;39.006;2022-08-21T05:29:24;62.33;;;6.43;;
61635;SDS011;59438;45.014;39.006;2022-08-21T05:31:51;51.53;;;6.43;;
61635;SDS011;59438;45.014;39.006;2022-08-21T05:34:20;60.60;;;6.43;;
61635;SDS011;59438;45.014;39.006;2022-08-21T05:36:48;51.53;;;6.78;;
61635;SDS011;59438;45.014;39.006;2022-08-21T05:39:16;54.05;;;6.10;;
61635;SDS011;59438;45.014;39.006;2022-08-21T05:41:42;57.65;;;6.03;;
61635;SDS011;59438;45.014;39.006;2022-08-21T05:44:08;51.03;;;5.88;;
61635;SDS011;59438;45.014;39.006;2022-08-21T05:46:35;46.95;;;5.93;;
61635;SDS011;59438;45.014;39.006;2022-08-21T05:49:01;49.30;;;5.90;;
61635;SDS011;59438;45.014;39.006;2022-08-21T05:51:27;41.53;;;5.32;;
61635;SDS011;59438;45.014;39.006;2022-08-21T05:53:54;46.22;;;5.72;;
61635;SDS011;59438;45.014;39.006;2022-08-21T05:56:22;48.42;;;6.05;;
61635;SDS011;59438;45.014;39.006;2022-08-21T05:58:48;41.78;;;6.05;;
61635;SDS011;59438;45.014;39.006;2022-08-21T06:01:14;43.78;;;5.40;;
61635;SDS011;59438;45.014;39.006;2022-08-21T06:03:41;47.22;;;6.13;;
61635;SDS011;59438;45.014;39.006;2022-08-21T06:06:07;53.88;;;5.68;;
61635;SDS011;59438;45.014;39.006;2022-08-21T06:08:34;43.05;;;5.55;;
61635;SDS011;59438;45.014;39.006;2022-08-21T06:11:01;48.63;;;5.72;;
61635;SDS011;59438;45.014;39.006;2022-08-21T06:13:30;51.25;;;5.72;;
61635;SDS011;59438;45.014;39.006;2022-08-21T06:16:00;41.63;;;6.15;;
61635;SDS011;59438;45.014;39.006;2022-08-21T06:18:28;50.83;;;6.57;;
61635;SDS011;59438;45.014;39.006;2022-08-21T06:20:54;52.17;;;6.25;;
61635;SDS011;59438;45.014;39.006;2022-08-21T06:23:21;57.67;;;6.63;;
61635;SDS011;59438;45.014;39.006;2022-08-21T06:25:47;47.45;;;6.20;;
61635;SDS011;59438;45.014;39.006;2022-08-21T06:28:13;41.30;;;6.15;;
61635;SDS011;59438;45.014;39.006;2022-08-21T06:30:41;46.75;;;5.93;;
61635;SDS011;59438;45.014;39.006;2022-08-21T06:33:08;43.03;;;5.93;;
61635;SDS011;59438;45.014;39.006;2022-08-21T06:35:34;57.85;;;6.10;;
61635;SDS011;59438;45.014;39.006;2022-08-21T06:38:01;55.80;;;6.28;;
61635;SDS011;59438;45.014;39.006;2022-08-21T06:40:28;51.35;;;6.55;;
61635;SDS011;59438;45.014;39.006;2022-08-21T06:42:55;56.78;;;6.22;;
61635;SDS011;59438;45.014;39.006;2022-08-21T06:45:22;44.70;;;5.40;;
61635;SDS011;59438;45.014;39.006;2022-08-21T06:47:50;50.58;;;5.43;;
61635;SDS011;59438;45.014;39.006;2022-08-21T06:50:16;52.80;;;5.82;;
61635;SDS011;59438;45.014;39.006;2022-08-21T06:52:43;46.13;;;5.43;;
61635;SDS011;59438;45.014;39.006;2022-08-21T06:55:12;42.53;;;5.45;;
61635;SDS011;59438;45.014;39.006;2022-08-21T06:57:38;47.30;;;5.30;;
61635;SDS011;59438;45.014;39.006;2022-08-21T07:00:05;42.38;;;5.70;;
61635;SDS011;59438;45.014;39.006;2022-08-21T07:02:32;37.28;;;5.60;;
61635;SDS011;59438;45.014;39.006;2022-08-21T07:05:00;48.85;;;6.07;;
61635;SDS011;59438;45.014;39.006;2022-08-21T07:07:26;43.10;;;5.50;;
61635;SDS011;59438;45.014;39.006;2022-08-21T07:09:53;47.67;;;6.15;;
61635;SDS011;59438;45.014;39.006;2022-08-21T07:12:19;44.22;;;6.40;;
61635;SDS011;59438;45.014;39.006;2022-08-21T07:14:45;40.45;;;5.63;;
61635;SDS011;59438;45.014;39.006;2022-08-21T07:17:12;41.83;;;5.38;;
61635;SDS011;59438;45.014;39.006;2022-08-21T07:19:38;59.17;;;6.80;;
61635;SDS011;59438;45.014;39.006;2022-08-21T07:22:06;40.67;;;6.20;;
61635;SDS011;59438;45.014;39.006;2022-08-21T07:24:33;37.05;;;5.20;;
61635;SDS011;59438;45.014;39.006;2022-08-21T07:26:59;45.33;;;6.47;;
61635;SDS011;59438;45.014;39.006;2022-08-21T07:29:25;39.72;;;5.32;;
61635;SDS011;59438;45.014;39.006;2022-08-21T07:31:52;42.85;;;6.13;;
61635;SDS011;59438;45.014;39.006;2022-08-21T07:34:18;47.47;;;5.65;;
61635;SDS011;59438;45.014;39.006;2022-08-21T07:36:44;57.42;;;6.93;;
61635;SDS011;59438;45.014;39.006;2022-08-21T07:39:12;44.50;;;5.65;;
61635;SDS011;59438;45.014;39.006;2022-08-21T07:41:38;46.35;;;6.25;;
61635;SDS011;59438;45.014;39.006;2022-08-21T07:44:05;38.08;;;6.18;;
61635;SDS011;59438;45.014;39.006;2022-08-21T07:46:31;47.70;;;5.40;;
61635;SDS011;59438;45.014;39.006;2022-08-21T07:48:57;49.60;;;5.63;;
61635;SDS011;59438;45.014;39.006;2022-08-21T07:51:25;44.88;;;5.82;;
61635;SDS011;59438;45.014;39.006;2022-08-21T07:53:54;35.40;;;5.87;;
61635;SDS011;59438;45.014;39.006;2022-08-21T07:56:23;49.25;;;5.93;;
61635;SDS011;59438;45.014;39.006;2022-08-21T07:58:49;44.80;;;6.20;;
61635;SDS011;59438;45.014;39.006;2022-08-21T08:01:15;32.50;;;5.93;;
61635;SDS011;59438;45.014;39.006;2022-08-21T08:03:42;52.40;;;7.00;;
61635;SDS011;59438;45.014;39.006;2022-08-21T08:06:08;48.53;;;6.88;;
61635;SDS011;59438;45.014;39.006;2022-08-21T08:08:35;45.33;;;6.22;;
61635;SDS011;59438;45.014;39.006;2022-08-21T08:11:01;47.95;;;6.65;;
61635;SDS011;59438;45.014;39.006;2022-08-21T08:13:29;48.50;;;6.72;;
61635;SDS011;59438;45.014;39.006;2022-08-21T08:15:55;48.45;;;6.45;;
61635;SDS011;59438;45.014;39.006;2022-08-21T08:18:22;46.35;;;6.18;;
61635;SDS011;59438;45.014;39.006;2022-08-21T08:20:49;80.47;;;8.70;;
61635;SDS011;59438;45.014;39.006;2022-08-21T08:23:15;44.40;;;5.78;;
61635;SDS011;59438;45.014;39.006;2022-08-21T08:25:41;37.85;;;6.03;;
61635;SDS011;59438;45.014;39.006;2022-08-21T08:28:08;67.20;;;7.97;;
61635;SDS011;59438;45.014;39.006;2022-08-21T08:30:35;44.67;;;5.88;;
61635;SDS011;59438;45.014;39.006;2022-08-21T08:33:02;52.22;;;6.53;;
61635;SDS011;59438;45.014;39.006;2022-08-21T08:35:28;52.58;;;6.43;;
61635;SDS011;59438;45.014;39.006;2022-08-21T08:37:55;42.17;;;5.97;;
61635;SDS011;59438;45.014;39.006;2022-08-21T08:40:22;57.63;;;7.03;;
61635;SDS011;59438;45.014;39.006;2022-08-21T08:42:56;46.58;;;5.78;;
61635;SDS011;59438;45.014;39.006;2022-08-21T08:45:22;43.78;;;6.07;;
61635;SDS011;59438;45.014;39.006;2022-08-21T08:47:52;52.90;;;7.18;;
61635;SDS011;59438;45.014;39.006;2022-08-21T08:50:38;45.55;;;6.03;;
61635;SDS011;59438;45.014;39.006;2022-08-21T08:53:07;48.10;;;6.65;;
61635;SDS011;59438;45.014;39.006;2022-08-21T08:55:39;52.28;;;6.55;;
61635;SDS011;59438;45.014;39.006;2022-08-21T08:58:08;45.88;;;5.53;;
61635;SDS011;59438;45.014;39.006;2022-08-21T09:00:38;45.35;;;5.93;;
61635;SDS011;59438;45.014;39.006;2022-08-21T09:03:06;42.95;;;6.72;;
61635;SDS011;59438;45.014;39.006;2022-08-21T09:05:35;48.28;;;6.43;;
61635;SDS011;59438;45.014;39.006;2022-08-21T09:08:15;58.83;;;6.82;;
61635;SDS011;59438;45.014;39.006;2022-08-21T09:10:56;48.38;;;6.43;;
61635;SDS011;59438;45.014;39.006;2022-08-21T09:13:30;41.15;;;5.97;;
61635;SDS011;59438;45.014;39.006;2022-08-21T09:16:09;55.03;;;5.80;;
61635;SDS011;59438;45.014;39.006;2022-08-21T09:18:44;41.97;;;6.53;;
61635;SDS011;59438;45.014;39.006;2022-08-21T09:21:23;49.72;;;5.80;;
61635;SDS011;59438;45.014;39.006;2022-08-21T09:23:59;38.50;;;5.38;;
61635;SDS011;59438;45.014;39.006;2022-08-21T09:26:29;43.85;;;5.80;;
61635;SDS011;59438;45.014;39.006;2022-08-21T09:29:01;47.47;;;6.88;;
61635;SDS011;59438;45.014;39.006;2022-08-21T09:31:29;41.30;;;5.75;;
61635;SDS011;59438;45.014;39.006;2022-08-21T09:33:59;44.03;;;5.57;;
61635;SDS011;59438;45.014;39.006;2022-08-21T09:36:29;45.00;;;6.80;;
61635;SDS011;59438;45.014;39.006;2022-08-21T09:39:02;53.92;;;6.30;;
61635;SDS011;59438;45.014;39.006;2022-08-21T09:41:31;38.60;;;5.65;;
61635;SDS011;59438;45.014;39.006;2022-08-21T09:44:00;52.90;;;6.70;;
61635;SDS011;59438;45.014;39.006;2022-08-21T09:46:26;39.17;;;5.55;;
61635;SDS011;59438;45.014;39.006;2022-08-21T09:48:54;42.95;;;5.40;;
61635;SDS011;59438;45.014;39.006;2022-08-21T09:51:23;46.10;;;5.68;;
61635;SDS011;59438;45.014;39.006;2022-08-21T09:53:51;43.53;;;6.20;;
61635;SDS011;59438;45.014;39.006;2022-08-21T09:56:21;40.80;;;6.82;;
61635;SDS011;59438;45.014;39.006;2022-08-21T09:58:54;28.73;;;5.80;;
61635;SDS011;59438;45.014;39.006;2022-08-21T10:01:21;43.15;;;5.90;;
61635;SDS011;59438;45.014;39.006;2022-08-21T10:03:49;35.67;;;5.78;;
61635;SDS011;59438;45.014;39.006;2022-08-21T10:09:03;46.47;;;6.03;;
61635;SDS011;59438;45.014;39.006;2022-08-21T10:11:30;47.28;;;6.03;;
61635;SDS011;59438;45.014;39.006;2022-08-21T10:14:01;38.15;;;5.78;;
61635;SDS011;59438;45.014;39.006;2022-08-21T10:16:38;38.80;;;6.10;;
61635;SDS011;59438;45.014;39.006;2022-08-21T10:19:15;45.13;;;5.80;;
61635;SDS011;59438;45.014;39.006;2022-08-21T10:21:53;45.85;;;6.00;;
61635;SDS011;59438;45.014;39.006;2022-08-21T10:24:27;44.80;;;6.20;;
61635;SDS011;59438;45.014;39.006;2022-08-21T10:26:57;52.85;;;6.80;;
61635;SDS011;59438;45.014;39.006;2022-08-21T10:29:43;36.97;;;5.70;;
61635;SDS011;59438;45.014;39.006;2022-08-21T10:32:19;41.28;;;5.90;;
61635;SDS011;59438;45.014;39.006;2022-08-21T10:34:55;42.05;;;6.07;;
61635;SDS011;59438;45.014;39.006;2022-08-21T10:37:39;36.10;;;5.70;;
61635;SDS011;59438;45.014;39.006;2022-08-21T10:40:21;35.30;;;5.60;;
61635;SDS011;59438;45.014;39.006;2022-08-21T10:42:53;35.47;;;5.63;;
61635;SDS011;59438;45.014;39.006;2022-08-21T10:45:36;41.17;;;5.75;;
61635;SDS011;59438;45.014;39.006;2022-08-21T10:48:13;35.38;;;5.88;;
61635;SDS011;59438;45.014;39.006;2022-08-21T10:50:48;43.08;;;6.53;;
61635;SDS011;59438;45.014;39.006;2022-08-21T10:56:12;34.05;;;5.22;;
61635;SDS011;59438;45.014;39.006;2022-08-21T10:58:45;44.80;;;5.95;;
61635;SDS011;59438;45.014;39.006;2022-08-21T11:01:20;39.42;;;6.60;;
61635;SDS011;59438;45.014;39.006;2022-08-21T11:03:53;47.40;;;6.03;;
61635;SDS011;59438;45.014;39.006;2022-08-21T11:06:30;40.67;;;5.68;;
61635;SDS011;59438;45.014;39.006;2022-08-21T11:09:11;39.07;;;6.23;;
61635;SDS011;59438;45.014;39.006;2022-08-21T11:11:40;39.42;;;5.53;;
61635;SDS011;59438;45.014;39.006;2022-08-21T11:14:15;38.97;;;5.95;;
61635;SDS011;59438;45.014;39.006;2022-08-21T11:16:48;34.50;;;6.20;;
61635;SDS011;59438;45.014;39.006;2022-08-21T11:19:24;38.40;;;5.80;;
61635;SDS011;59438;45.014;39.006;2022-08-21T11:21:56;26.98;;;5.55;;
61635;SDS011;59438;45.014;39.006;2022-08-21T11:24:35;46.58;;;6.47;;
61635;SDS011;59438;45.014;39.006;2022-08-21T11:27:16;56.95;;;7.05;;
61635;SDS011;59438;45.014;39.006;2022-08-21T11:29:48;45.17;;;5.93;;
61635;SDS011;59438;45.014;39.006;2022-08-21T11:32:29;32.50;;;5.63;;
61635;SDS011;59438;45.014;39.006;2022-08-21T11:35:28;31.02;;;5.28;;
61635;SDS011;59438;45.014;39.006;2022-08-21T11:38:01;42.00;;;5.90;;
61635;SDS011;59438;45.014;39.006;2022-08-21T11:40:50;36.58;;;6.40;;
61635;SDS011;59438;45.014;39.006;2022-08-21T11:43:30;41.17;;;6.35;;
61635;SDS011;59438;45.014;39.006;2022-08-21T11:46:09;38.42;;;5.85;;
61635;SDS011;59438;45.014;39.006;2022-08-21T11:48:44;47.72;;;5.88;;
61635;SDS011;59438;45.014;39.006;2022-08-21T11:51:18;52.30;;;6.13;;
61635;SDS011;59438;45.014;39.006;2022-08-21T11:53:48;33.13;;;5.70;;
61635;SDS011;59438;45.014;39.006;2022-08-21T11:58:49;35.65;;;5.93;;
61635;SDS011;59438;45.014;39.006;2022-08-21T12:01:20;46.67;;;5.55;;
61635;SDS011;59438;45.014;39.006;2022-08-21T12:03:55;34.70;;;5.03;;
61635;SDS011;59438;45.014;39.006;2022-08-21T12:06:30;33.50;;;5.60;;
61635;SDS011;59438;45.014;39.006;2022-08-21T12:08:59;37.42;;;4.97;;
61635;SDS011;59438;45.014;39.006;2022-08-21T12:11:29;33.30;;;5.45;;
61635;SDS011;59438;45.014;39.006;2022-08-21T12:13:57;33.47;;;5.00;;
61635;SDS011;59438;45.014;39.006;2022-08-21T12:16:28;40.67;;;5.80;;
61635;SDS011;59438;45.014;39.006;2022-08-21T12:19:02;36.08;;;5.35;;
61635;SDS011;59438;45.014;39.006;2022-08-21T12:21:30;39.58;;;5.43;;
61635;SDS011;59438;45.014;39.006;2022-08-21T12:24:02;37.03;;;4.63;;
61635;SDS011;59438;45.014;39.006;2022-08-21T12:26:48;31.95;;;5.18;;
61635;SDS011;59438;45.014;39.006;2022-08-21T12:29:20;38.47;;;4.93;;
61635;SDS011;59438;45.014;39.006;2022-08-21T12:31:51;38.92;;;5.50;;
61635;SDS011;59438;45.014;39.006;2022-08-21T12:34:23;31.15;;;5.00;;
61635;SDS011;59438;45.014;39.006;2022-08-21T12:37:00;35.38;;;4.88;;
61635;SDS011;59438;45.014;39.006;2022-08-21T12:39:32;38.28;;;5.28;;
61635;SDS011;59438;45.014;39.006;2022-08-21T12:42:06;43.83;;;5.47;;
61635;SDS011;59438;45.014;39.006;2022-08-21T12:44:42;40.53;;;4.87;;
61635;SDS011;59438;45.014;39.006;2022-08-21T12:47:17;28.38;;;5.75;;
61635;SDS011;59438;45.014;39.006;2022-08-21T12:49:52;31.50;;;5.38;;
61635;SDS011;59438;45.014;39.006;2022-08-21T12:52:23;40.72;;;5.35;;
61635;SDS011;59438;45.014;39.006;2022-08-21T12:54:54;32.83;;;4.85;;
61635;SDS011;59438;45.014;39.006;2022-08-21T12:57:23;33.38;;;4.80;;
61635;SDS011;59438;45.014;39.006;2022-08-21T12:59:54;32.00;;;4.95;;
61635;SDS011;59438;45.014;39.006;2022-08-21T13:02:22;35.08;;;4.60;;
61635;SDS011;59438;45.014;39.006;2022-08-21T13:04:51;33.60;;;4.72;;
61635;SDS011;59438;45.014;39.006;2022-08-21T13:07:22;40.25;;;5.43;;
61635;SDS011;59438;45.014;39.006;2022-08-21T13:09:52;31.63;;;4.88;;
61635;SDS011;59438;45.014;39.006;2022-08-21T13:12:22;26.83;;;4.82;;
61635;SDS011;59438;45.014;39.006;2022-08-21T13:14:49;34.65;;;4.72;;
61635;SDS011;59438;45.014;39.006;2022-08-21T13:17:20;31.30;;;5.30;;
61635;SDS011;59438;45.014;39.006;2022-08-21T13:19:52;39.45;;;5.25;;
61635;SDS011;59438;45.014;39.006;2022-08-21T13:22:20;31.25;;;4.93;;
61635;SDS011;59438;45.014;39.006;2022-08-21T13:24:47;31.77;;;4.78;;
61635;SDS011;59438;45.014;39.006;2022-08-21T13:27:22;29.92;;;4.57;;
61635;SDS011;59438;45.014;39.006;2022-08-21T13:30:00;29.20;;;4.97;;
61635;SDS011;59438;45.014;39.006;2022-08-21T13:32:30;30.58;;;4.72;;
61635;SDS011;59438;45.014;39.006;2022-08-21T13:34:58;27.45;;;5.10;;
61635;SDS011;59438;45.014;39.006;2022-08-21T13:37:32;28.55;;;4.47;;
61635;SDS011;59438;45.014;39.006;2022-08-21T13:40:00;28.38;;;4.43;;
61635;SDS011;59438;45.014;39.006;2022-08-21T13:42:28;26.50;;;4.30;;
61635;SDS011;59438;45.014;39.006;2022-08-21T13:44:55;27.85;;;5.30;;
61635;SDS011;59438;45.014;39.006;2022-08-21T13:47:21;28.08;;;4.82;;
61635;SDS011;59438;45.014;39.006;2022-08-21T13:49:49;30.83;;;4.68;;
61635;SDS011;59438;45.014;39.006;2022-08-21T13:52:18;34.80;;;5.22;;
61635;SDS011;59438;45.014;39.006;2022-08-21T13:54:52;28.20;;;5.22;;
61635;SDS011;59438;45.014;39.006;2022-08-21T13:57:24;30.65;;;5.55;;
61635;SDS011;59438;45.014;39.006;2022-08-21T13:59:53;27.38;;;4.45;;
61635;SDS011;59438;45.014;39.006;2022-08-21T14:02:38;34.08;;;4.43;;
61635;SDS011;59438;45.014;39.006;2022-08-21T14:05:06;26.10;;;4.03;;
61635;SDS011;59438;45.014;39.006;2022-08-21T14:07:33;27.35;;;4.43;;
61635;SDS011;59438;45.014;39.006;2022-08-21T14:10:03;34.20;;;5.22;;
61635;SDS011;59438;45.014;39.006;2022-08-21T14:12:32;32.50;;;5.43;;
61635;SDS011;59438;45.014;39.006;2022-08-21T14:15:08;34.45;;;5.03;;
61635;SDS011;59438;45.014;39.006;2022-08-21T14:17:39;31.70;;;4.50;;
61635;SDS011;59438;45.014;39.006;2022-08-21T14:20:07;29.67;;;4.18;;
61635;SDS011;59438;45.014;39.006;2022-08-21T14:25:06;22.98;;;4.70;;
61635;SDS011;59438;45.014;39.006;2022-08-21T14:27:34;26.77;;;4.93;;
61635;SDS011;59438;45.014;39.006;2022-08-21T14:30:12;36.28;;;4.65;;
61635;SDS011;59438;45.014;39.006;2022-08-21T14:32:44;25.35;;;4.13;;
61635;SDS011;59438;45.014;39.006;2022-08-21T14:35:11;42.05;;;5.22;;
61635;SDS011;59438;45.014;39.006;2022-08-21T14:37:41;42.88;;;5.18;;
61635;SDS011;59438;45.014;39.006;2022-08-21T14:40:09;23.65;;;4.03;;
61635;SDS011;59438;45.014;39.006;2022-08-21T14:42:36;28.70;;;4.50;;